sensor_id;sensor_type;location;lat;lon;timestamp;temperature;humidity
43647;DHT22;56152;49.996;18.980;2024-01-30T00:03:10;-2.90;96.80
43647;DHT22;56152;49.996;18.980;2024-01-30T00:08:13;-2.90;96.80
43647;DHT22;56152;49.996;18.980;2024-01-30T00:13:19;-2.90;96.80
43647;DHT22;56152;49.996;18.980;2024-01-30T00:18:22;-3.00;96.90
43647;DHT22;56152;49.996;18.980;2024-01-30T00:23:34;-3.00;96.90
43647;DHT22;56152;49.996;18.980;2024-01-30T00:28:39;-3.00;96.90
43647;DHT22;56152;49.996;18.980;2024-01-30T00:33:41;-3.00;96.90
43647;DHT22;56152;49.996;18.980;2024-01-30T00:38:45;-3.10;96.90
43647;DHT22;56152;49.996;18.980;2024-01-30T00:43:51;-3.10;96.90
43647;DHT22;56152;49.996;18.980;2024-01-30T00:48:54;-3.10;96.90
43647;DHT22;56152;49.996;18.980;2024-01-30T00:53:57;-3.10;96.90
43647;DHT22;56152;49.996;18.980;2024-01-30T00:59:03;-3.20;96.90
43647;DHT22;56152;49.996;18.980;2024-01-30T01:04:06;-3.20;97.00
43647;DHT22;56152;49.996;18.980;2024-01-30T01:09:08;-3.20;97.00
43647;DHT22;56152;49.996;18.980;2024-01-30T01:14:13;-3.30;96.90
43647;DHT22;56152;49.996;18.980;2024-01-30T01:19:15;-3.30;97.00
43647;DHT22;56152;49.996;18.980;2024-01-30T01:24:17;-3.30;97.00
43647;DHT22;56152;49.996;18.980;2024-01-30T01:29:26;-3.30;97.00
43647;DHT22;56152;49.996;18.980;2024-01-30T01:34:29;-3.40;97.00
43647;DHT22;56152;49.996;18.980;2024-01-30T01:39:38;-3.40;97.00
43647;DHT22;56152;49.996;18.980;2024-01-30T01:44:42;-3.40;97.00
43647;DHT22;56152;49.996;18.980;2024-01-30T01:49:44;-3.40;96.90
43647;DHT22;56152;49.996;18.980;2024-01-30T01:54:47;-3.40;96.90
43647;DHT22;56152;49.996;18.980;2024-01-30T01:59:51;-3.40;97.00
43647;DHT22;56152;49.996;18.980;2024-01-30T02:04:53;-3.50;97.00
43647;DHT22;56152;49.996;18.980;2024-01-30T02:09:57;-3.50;97.00
43647;DHT22;56152;49.996;18.980;2024-01-30T02:15:04;-3.60;97.00
43647;DHT22;56152;49.996;18.980;2024-01-30T02:20:09;-3.60;97.00
43647;DHT22;56152;49.996;18.980;2024-01-30T02:25:18;-3.60;97.00
43647;DHT22;56152;49.996;18.980;2024-01-30T02:30:20;-3.70;97.00
43647;DHT22;56152;49.996;18.980;2024-01-30T02:35:22;-3.70;97.10
43647;DHT22;56152;49.996;18.980;2024-01-30T02:40:27;-3.70;97.10
43647;DHT22;56152;49.996;18.980;2024-01-30T02:45:30;-3.70;97.10
43647;DHT22;56152;49.996;18.980;2024-01-30T02:50:33;-3.80;97.10
43647;DHT22;56152;49.996;18.980;2024-01-30T02:55:37;-3.80;97.20
43647;DHT22;56152;49.996;18.980;2024-01-30T03:00:39;-3.70;97.20
43647;DHT22;56152;49.996;18.980;2024-01-30T03:05:54;-3.80;97.10
43647;DHT22;56152;49.996;18.980;2024-01-30T03:10:58;-3.80;97.20
43647;DHT22;56152;49.996;18.980;2024-01-30T03:16:06;-3.80;97.20
43647;DHT22;56152;49.996;18.980;2024-01-30T03:21:07;-3.80;97.20
43647;DHT22;56152;49.996;18.980;2024-01-30T03:26:12;-3.80;97.20
43647;DHT22;56152;49.996;18.980;2024-01-30T03:31:16;-3.80;97.20
43647;DHT22;56152;49.996;18.980;2024-01-30T03:36:22;-3.90;97.20
43647;DHT22;56152;49.996;18.980;2024-01-30T03:41:35;-3.90;97.20
43647;DHT22;56152;49.996;18.980;2024-01-30T03:46:45;-3.90;97.10
43647;DHT22;56152;49.996;18.980;2024-01-30T03:51:48;-4.00;97.20
43647;DHT22;56152;49.996;18.980;2024-01-30T03:57:08;-4.00;97.20
43647;DHT22;56152;49.996;18.980;2024-01-30T04:02:10;-4.00;97.30
43647;DHT22;56152;49.996;18.980;2024-01-30T04:07:12;-4.10;97.20
43647;DHT22;56152;49.996;18.980;2024-01-30T04:12:17;-4.10;97.30
43647;DHT22;56152;49.996;18.980;2024-01-30T04:17:19;-4.20;97.30
43647;DHT22;56152;49.996;18.980;2024-01-30T04:22:21;-4.20;97.30
43647;DHT22;56152;49.996;18.980;2024-01-30T04:27:26;-4.20;97.30
43647;DHT22;56152;49.996;18.980;2024-01-30T04:32:31;-4.20;97.30
43647;DHT22;56152;49.996;18.980;2024-01-30T04:37:34;-4.20;97.40
43647;DHT22;56152;49.996;18.980;2024-01-30T04:42:40;-4.20;97.60
43647;DHT22;56152;49.996;18.980;2024-01-30T04:47:46;-4.30;97.30
43647;DHT22;56152;49.996;18.980;2024-01-30T04:52:53;-4.30;97.30
43647;DHT22;56152;49.996;18.980;2024-01-30T04:57:58;-4.30;97.30
43647;DHT22;56152;49.996;18.980;2024-01-30T05:03:00;-4.30;97.20
43647;DHT22;56152;49.996;18.980;2024-01-30T05:08:02;-4.30;97.30
43647;DHT22;56152;49.996;18.980;2024-01-30T05:13:06;-4.30;97.50
43647;DHT22;56152;49.996;18.980;2024-01-30T05:18:09;-4.30;97.30
43647;DHT22;56152;49.996;18.980;2024-01-30T05:23:14;-4.40;97.30
43647;DHT22;56152;49.996;18.980;2024-01-30T05:28:17;-4.30;97.30
43647;DHT22;56152;49.996;18.980;2024-01-30T05:33:19;-4.30;97.30
43647;DHT22;56152;49.996;18.980;2024-01-30T05:38:21;-4.40;97.20
43647;DHT22;56152;49.996;18.980;2024-01-30T05:43:29;-4.40;97.30
43647;DHT22;56152;49.996;18.980;2024-01-30T05:48:32;-4.40;97.30
43647;DHT22;56152;49.996;18.980;2024-01-30T05:53:37;-4.40;97.30
43647;DHT22;56152;49.996;18.980;2024-01-30T05:58:43;-4.40;97.30
43647;DHT22;56152;49.996;18.980;2024-01-30T06:03:48;-4.40;97.20
43647;DHT22;56152;49.996;18.980;2024-01-30T06:08:52;-4.50;97.20
43647;DHT22;56152;49.996;18.980;2024-01-30T06:13:57;-4.50;97.30
43647;DHT22;56152;49.996;18.980;2024-01-30T06:19:00;-4.50;97.40
43647;DHT22;56152;49.996;18.980;2024-01-30T06:24:02;-4.50;97.30
43647;DHT22;56152;49.996;18.980;2024-01-30T06:29:20;-4.60;97.30
43647;DHT22;56152;49.996;18.980;2024-01-30T06:34:25;-4.60;97.30
43647;DHT22;56152;49.996;18.980;2024-01-30T06:39:29;-4.50;97.40
43647;DHT22;56152;49.996;18.980;2024-01-30T06:44:39;-4.50;97.40
43647;DHT22;56152;49.996;18.980;2024-01-30T06:49:41;-4.50;97.40
43647;DHT22;56152;49.996;18.980;2024-01-30T06:54:51;-4.40;97.40
43647;DHT22;56152;49.996;18.980;2024-01-30T07:00:13;-4.30;97.50
43647;DHT22;56152;49.996;18.980;2024-01-30T07:05:16;-4.30;97.40
43647;DHT22;56152;49.996;18.980;2024-01-30T07:10:18;-4.20;97.40
43647;DHT22;56152;49.996;18.980;2024-01-30T07:15:21;-4.00;97.40
43647;DHT22;56152;49.996;18.980;2024-01-30T07:20:24;-3.90;97.30
43647;DHT22;56152;49.996;18.980;2024-01-30T07:25:26;-3.80;97.30
43647;DHT22;56152;49.996;18.980;2024-01-30T07:30:31;-3.60;97.20
43647;DHT22;56152;49.996;18.980;2024-01-30T07:35:36;-3.40;97.10
43647;DHT22;56152;49.996;18.980;2024-01-30T07:40:38;-3.10;97.10
43647;DHT22;56152;49.996;18.980;2024-01-30T07:45:42;-2.90;97.00
43647;DHT22;56152;49.996;18.980;2024-01-30T07:50:50;-2.60;96.80
43647;DHT22;56152;49.996;18.980;2024-01-30T07:55:53;-2.30;96.70
43647;DHT22;56152;49.996;18.980;2024-01-30T08:00:56;-2.10;96.60
43647;DHT22;56152;49.996;18.980;2024-01-30T08:05:58;-1.90;96.50
43647;DHT22;56152;49.996;18.980;2024-01-30T08:11:07;-1.70;96.40
43647;DHT22;56152;49.996;18.980;2024-01-30T08:16:24;-1.50;96.40
43647;DHT22;56152;49.996;18.980;2024-01-30T08:21:26;-1.20;96.40
43647;DHT22;56152;49.996;18.980;2024-01-30T08:26:30;-0.90;96.40
43647;DHT22;56152;49.996;18.980;2024-01-30T08:31:33;-0.60;96.30
43647;DHT22;56152;49.996;18.980;2024-01-30T08:36:36;-0.20;96.20
43647;DHT22;56152;49.996;18.980;2024-01-30T08:41:38;0.20;96.30
43647;DHT22;56152;49.996;18.980;2024-01-30T08:46:41;0.50;95.90
43647;DHT22;56152;49.996;18.980;2024-01-30T08:51:43;1.00;95.60
43647;DHT22;56152;49.996;18.980;2024-01-30T08:56:47;1.50;95.40
43647;DHT22;56152;49.996;18.980;2024-01-30T09:01:50;1.90;95.20
43647;DHT22;56152;49.996;18.980;2024-01-30T09:06:55;2.30;95.00
43647;DHT22;56152;49.996;18.980;2024-01-30T09:11:57;2.80;94.70
43647;DHT22;56152;49.996;18.980;2024-01-30T09:17:04;3.20;94.30
43647;DHT22;56152;49.996;18.980;2024-01-30T09:22:06;3.60;94.00
43647;DHT22;56152;49.996;18.980;2024-01-30T09:27:08;3.90;93.70
43647;DHT22;56152;49.996;18.980;2024-01-30T09:32:11;4.20;93.40
43647;DHT22;56152;49.996;18.980;2024-01-30T09:37:13;4.40;93.10
43647;DHT22;56152;49.996;18.980;2024-01-30T09:42:27;4.70;92.80
43647;DHT22;56152;49.996;18.980;2024-01-30T09:47:40;5.00;92.60
43647;DHT22;56152;49.996;18.980;2024-01-30T09:52:43;5.20;92.30
43647;DHT22;56152;49.996;18.980;2024-01-30T09:57:46;5.50;92.00
43647;DHT22;56152;49.996;18.980;2024-01-30T10:02:49;5.70;91.60
43647;DHT22;56152;49.996;18.980;2024-01-30T10:07:53;5.80;91.40
43647;DHT22;56152;49.996;18.980;2024-01-30T10:12:58;5.90;91.20
43647;DHT22;56152;49.996;18.980;2024-01-30T10:18:03;5.90;91.10
43647;DHT22;56152;49.996;18.980;2024-01-30T10:23:08;6.10;91.00
43647;DHT22;56152;49.996;18.980;2024-01-30T10:28:13;6.20;90.70
43647;DHT22;56152;49.996;18.980;2024-01-30T10:33:20;6.30;90.30
43647;DHT22;56152;49.996;18.980;2024-01-30T10:38:24;6.30;90.30
43647;DHT22;56152;49.996;18.980;2024-01-30T10:43:31;6.30;90.20
43647;DHT22;56152;49.996;18.980;2024-01-30T10:48:39;6.30;90.30
43647;DHT22;56152;49.996;18.980;2024-01-30T10:53:44;6.20;90.30
43647;DHT22;56152;49.996;18.980;2024-01-30T10:58:50;6.20;90.40
43647;DHT22;56152;49.996;18.980;2024-01-30T11:03:55;6.20;90.50
43647;DHT22;56152;49.996;18.980;2024-01-30T11:09:02;6.20;90.50
43647;DHT22;56152;49.996;18.980;2024-01-30T11:14:10;6.10;90.40
43647;DHT22;56152;49.996;18.980;2024-01-30T11:19:23;6.10;90.40
43647;DHT22;56152;49.996;18.980;2024-01-30T11:24:27;6.20;90.40
43647;DHT22;56152;49.996;18.980;2024-01-30T11:29:30;6.30;90.30
43647;DHT22;56152;49.996;18.980;2024-01-30T11:34:34;6.40;90.60
43647;DHT22;56152;49.996;18.980;2024-01-30T11:39:36;6.70;90.10
43647;DHT22;56152;49.996;18.980;2024-01-30T11:44:46;6.90;89.60
43647;DHT22;56152;49.996;18.980;2024-01-30T11:49:50;7.20;89.20
43647;DHT22;56152;49.996;18.980;2024-01-30T11:54:52;7.30;88.50
43647;DHT22;56152;49.996;18.980;2024-01-30T11:59:55;7.40;87.80
43647;DHT22;56152;49.996;18.980;2024-01-30T12:05:03;7.30;87.50
43647;DHT22;56152;49.996;18.980;2024-01-30T12:10:09;7.40;87.20
43647;DHT22;56152;49.996;18.980;2024-01-30T12:15:12;7.40;86.90
43647;DHT22;56152;49.996;18.980;2024-01-30T12:20:18;7.40;87.00
43647;DHT22;56152;49.996;18.980;2024-01-30T12:25:22;7.60;86.80
43647;DHT22;56152;49.996;18.980;2024-01-30T12:30:24;7.80;86.30
43647;DHT22;56152;49.996;18.980;2024-01-30T12:35:28;7.90;86.00
43647;DHT22;56152;49.996;18.980;2024-01-30T12:40:36;8.10;85.40
43647;DHT22;56152;49.996;18.980;2024-01-30T12:45:40;8.20;84.60
43647;DHT22;56152;49.996;18.980;2024-01-30T12:50:44;8.40;85.00
43647;DHT22;56152;49.996;18.980;2024-01-30T12:55:47;8.60;84.50
43647;DHT22;56152;49.996;18.980;2024-01-30T13:00:55;8.70;83.90
43647;DHT22;56152;49.996;18.980;2024-01-30T13:06:01;8.80;83.40
43647;DHT22;56152;49.996;18.980;2024-01-30T13:11:04;8.80;83.40
43647;DHT22;56152;49.996;18.980;2024-01-30T13:16:07;8.90;83.50
43647;DHT22;56152;49.996;18.980;2024-01-30T13:21:11;8.90;83.10
43647;DHT22;56152;49.996;18.980;2024-01-30T13:26:15;8.90;83.10
43647;DHT22;56152;49.996;18.980;2024-01-30T13:31:20;8.80;83.10
43647;DHT22;56152;49.996;18.980;2024-01-30T13:36:24;8.90;83.10
43647;DHT22;56152;49.996;18.980;2024-01-30T13:41:26;8.80;82.90
43647;DHT22;56152;49.996;18.980;2024-01-30T13:46:29;8.70;82.90
43647;DHT22;56152;49.996;18.980;2024-01-30T13:51:33;8.40;82.60
43647;DHT22;56152;49.996;18.980;2024-01-30T13:56:37;8.20;82.60
43647;DHT22;56152;49.996;18.980;2024-01-30T14:01:40;8.10;83.10
43647;DHT22;56152;49.996;18.980;2024-01-30T14:06:44;8.00;82.70
43647;DHT22;56152;49.996;18.980;2024-01-30T14:11:46;8.00;82.20
43647;DHT22;56152;49.996;18.980;2024-01-30T14:16:48;8.00;82.20
43647;DHT22;56152;49.996;18.980;2024-01-30T14:21:53;8.00;82.30
43647;DHT22;56152;49.996;18.980;2024-01-30T14:26:56;8.00;82.50
43647;DHT22;56152;49.996;18.980;2024-01-30T14:32:00;8.10;82.90
43647;DHT22;56152;49.996;18.980;2024-01-30T14:37:03;8.30;82.10
43647;DHT22;56152;49.996;18.980;2024-01-30T14:42:07;8.40;81.20
43647;DHT22;56152;49.996;18.980;2024-01-30T14:47:09;8.40;80.70
43647;DHT22;56152;49.996;18.980;2024-01-30T14:52:15;8.30;80.10
43647;DHT22;56152;49.996;18.980;2024-01-30T14:57:18;8.20;80.00
43647;DHT22;56152;49.996;18.980;2024-01-30T15:02:21;8.10;80.40
43647;DHT22;56152;49.996;18.980;2024-01-30T15:07:25;8.00;80.50
43647;DHT22;56152;49.996;18.980;2024-01-30T15:12:28;7.80;80.60
43647;DHT22;56152;49.996;18.980;2024-01-30T15:17:30;7.60;80.20
43647;DHT22;56152;49.996;18.980;2024-01-30T15:22:33;7.20;80.30
43647;DHT22;56152;49.996;18.980;2024-01-30T15:27:35;6.90;80.80
43647;DHT22;56152;49.996;18.980;2024-01-30T15:32:39;6.50;81.20
43647;DHT22;56152;49.996;18.980;2024-01-30T15:37:42;6.20;82.10
43647;DHT22;56152;49.996;18.980;2024-01-30T15:42:44;5.90;82.80
43647;DHT22;56152;49.996;18.980;2024-01-30T15:47:52;5.50;83.30
43647;DHT22;56152;49.996;18.980;2024-01-30T15:53:00;5.30;84.00
43647;DHT22;56152;49.996;18.980;2024-01-30T15:58:03;5.10;84.40
43647;DHT22;56152;49.996;18.980;2024-01-30T16:03:06;4.90;84.80
43647;DHT22;56152;49.996;18.980;2024-01-30T16:08:09;4.70;85.10
43647;DHT22;56152;49.996;18.980;2024-01-30T16:13:17;4.60;85.30
43647;DHT22;56152;49.996;18.980;2024-01-30T16:18:23;4.40;85.40
43647;DHT22;56152;49.996;18.980;2024-01-30T16:23:28;4.30;85.50
43647;DHT22;56152;49.996;18.980;2024-01-30T16:28:30;4.30;85.50
43647;DHT22;56152;49.996;18.980;2024-01-30T16:33:34;4.20;85.40
43647;DHT22;56152;49.996;18.980;2024-01-30T16:38:39;4.00;85.40
43647;DHT22;56152;49.996;18.980;2024-01-30T16:43:44;3.90;85.70
43647;DHT22;56152;49.996;18.980;2024-01-30T16:48:46;3.80;85.80
43647;DHT22;56152;49.996;18.980;2024-01-30T16:53:56;3.70;85.90
43647;DHT22;56152;49.996;18.980;2024-01-30T16:58:59;3.60;86.00
43647;DHT22;56152;49.996;18.980;2024-01-30T17:04:12;3.50;86.10
43647;DHT22;56152;49.996;18.980;2024-01-30T17:09:15;3.40;86.30
43647;DHT22;56152;49.996;18.980;2024-01-30T17:14:17;3.30;86.40
43647;DHT22;56152;49.996;18.980;2024-01-30T17:19:20;3.20;86.60
43647;DHT22;56152;49.996;18.980;2024-01-30T17:24:25;3.10;86.80
43647;DHT22;56152;49.996;18.980;2024-01-30T17:29:27;3.10;87.00
43647;DHT22;56152;49.996;18.980;2024-01-30T17:34:30;3.00;87.10
43647;DHT22;56152;49.996;18.980;2024-01-30T17:39:35;2.90;87.10
43647;DHT22;56152;49.996;18.980;2024-01-30T17:44:37;2.90;87.20
43647;DHT22;56152;49.996;18.980;2024-01-30T17:49:41;2.80;87.30
43647;DHT22;56152;49.996;18.980;2024-01-30T17:54:45;2.70;87.20
43647;DHT22;56152;49.996;18.980;2024-01-30T17:59:48;2.60;87.40
43647;DHT22;56152;49.996;18.980;2024-01-30T18:04:52;2.50;87.60
43647;DHT22;56152;49.996;18.980;2024-01-30T18:09:59;2.40;87.80
43647;DHT22;56152;49.996;18.980;2024-01-30T18:15:02;2.30;87.90
43647;DHT22;56152;49.996;18.980;2024-01-30T18:20:20;2.20;88.70
43647;DHT22;56152;49.996;18.980;2024-01-30T18:25:26;2.10;88.30
43647;DHT22;56152;49.996;18.980;2024-01-30T18:30:30;2.00;88.50
43647;DHT22;56152;49.996;18.980;2024-01-30T18:35:40;2.00;88.60
43647;DHT22;56152;49.996;18.980;2024-01-30T18:40:45;1.80;88.80
43647;DHT22;56152;49.996;18.980;2024-01-30T18:45:54;1.70;89.00
43647;DHT22;56152;49.996;18.980;2024-01-30T18:50:56;1.70;89.30
43647;DHT22;56152;49.996;18.980;2024-01-30T18:56:06;1.70;89.30
43647;DHT22;56152;49.996;18.980;2024-01-30T19:01:08;1.60;89.30
43647;DHT22;56152;49.996;18.980;2024-01-30T19:06:10;1.60;89.30
43647;DHT22;56152;49.996;18.980;2024-01-30T19:11:22;1.60;89.40
43647;DHT22;56152;49.996;18.980;2024-01-30T19:16:26;1.50;89.40
43647;DHT22;56152;49.996;18.980;2024-01-30T19:21:29;1.50;89.50
43647;DHT22;56152;49.996;18.980;2024-01-30T19:26:42;1.50;89.60
43647;DHT22;56152;49.996;18.980;2024-01-30T19:31:44;1.40;89.70
43647;DHT22;56152;49.996;18.980;2024-01-30T19:36:46;1.50;89.70
43647;DHT22;56152;49.996;18.980;2024-01-30T19:41:52;1.50;89.60
43647;DHT22;56152;49.996;18.980;2024-01-30T19:46:54;1.50;89.60
43647;DHT22;56152;49.996;18.980;2024-01-30T19:52:01;1.50;89.50
43647;DHT22;56152;49.996;18.980;2024-01-30T19:57:07;1.50;89.40
43647;DHT22;56152;49.996;18.980;2024-01-30T20:02:10;1.60;89.50
43647;DHT22;56152;49.996;18.980;2024-01-30T20:07:16;1.50;89.40
43647;DHT22;56152;49.996;18.980;2024-01-30T20:12:21;1.60;89.40
43647;DHT22;56152;49.996;18.980;2024-01-30T20:17:23;1.60;89.40
43647;DHT22;56152;49.996;18.980;2024-01-30T20:22:26;1.60;89.40
43647;DHT22;56152;49.996;18.980;2024-01-30T20:27:32;1.50;89.40
43647;DHT22;56152;49.996;18.980;2024-01-30T20:32:35;1.50;89.50
43647;DHT22;56152;49.996;18.980;2024-01-30T20:37:47;1.50;90.00
43647;DHT22;56152;49.996;18.980;2024-01-30T20:42:54;1.50;90.10
43647;DHT22;56152;49.996;18.980;2024-01-30T20:47:56;1.50;89.60
43647;DHT22;56152;49.996;18.980;2024-01-30T20:52:58;1.40;90.10
43647;DHT22;56152;49.996;18.980;2024-01-30T20:58:02;1.40;89.60
43647;DHT22;56152;49.996;18.980;2024-01-30T21:03:04;1.40;89.70
43647;DHT22;56152;49.996;18.980;2024-01-30T21:08:09;1.40;89.80
43647;DHT22;56152;49.996;18.980;2024-01-30T21:13:16;1.30;89.80
43647;DHT22;56152;49.996;18.980;2024-01-30T21:18:20;1.30;89.90
43647;DHT22;56152;49.996;18.980;2024-01-30T21:23:29;1.30;89.90
43647;DHT22;56152;49.996;18.980;2024-01-30T21:28:32;1.30;90.00
43647;DHT22;56152;49.996;18.980;2024-01-30T21:33:36;1.20;90.00
43647;DHT22;56152;49.996;18.980;2024-01-30T21:38:38;1.20;90.00
43647;DHT22;56152;49.996;18.980;2024-01-30T21:43:42;1.20;90.10
43647;DHT22;56152;49.996;18.980;2024-01-30T21:48:45;1.10;90.10
43647;DHT22;56152;49.996;18.980;2024-01-30T21:53:54;1.10;90.10
43647;DHT22;56152;49.996;18.980;2024-01-30T21:58:57;1.10;90.10
43647;DHT22;56152;49.996;18.980;2024-01-30T22:03:59;1.10;90.10
43647;DHT22;56152;49.996;18.980;2024-01-30T22:09:02;1.10;90.20
43647;DHT22;56152;49.996;18.980;2024-01-30T22:14:06;1.10;90.20
43647;DHT22;56152;49.996;18.980;2024-01-30T22:19:08;1.10;90.20
43647;DHT22;56152;49.996;18.980;2024-01-30T22:24:11;1.00;90.20
43647;DHT22;56152;49.996;18.980;2024-01-30T22:29:15;1.00;90.50
43647;DHT22;56152;49.996;18.980;2024-01-30T22:34:17;0.90;90.30
43647;DHT22;56152;49.996;18.980;2024-01-30T22:39:20;1.00;90.40
43647;DHT22;56152;49.996;18.980;2024-01-30T22:44:27;0.90;90.30
43647;DHT22;56152;49.996;18.980;2024-01-30T22:49:29;0.90;90.30
43647;DHT22;56152;49.996;18.980;2024-01-30T22:54:32;0.90;90.40
43647;DHT22;56152;49.996;18.980;2024-01-30T22:59:36;0.90;90.40
43647;DHT22;56152;49.996;18.980;2024-01-30T23:04:37;0.80;90.40
43647;DHT22;56152;49.996;18.980;2024-01-30T23:09:39;0.80;90.50
43647;DHT22;56152;49.996;18.980;2024-01-30T23:14:49;0.70;90.50
43647;DHT22;56152;49.996;18.980;2024-01-30T23:19:52;0.70;90.60
43647;DHT22;56152;49.996;18.980;2024-01-30T23:24:54;0.70;90.70
43647;DHT22;56152;49.996;18.980;2024-01-30T23:29:57;0.70;90.70
43647;DHT22;56152;49.996;18.980;2024-01-30T23:34:59;0.60;90.70
43647;DHT22;56152;49.996;18.980;2024-01-30T23:40:01;0.60;90.80
43647;DHT22;56152;49.996;18.980;2024-01-30T23:45:09;0.50;90.80
43647;DHT22;56152;49.996;18.980;2024-01-30T23:50:15;0.50;90.90
43647;DHT22;56152;49.996;18.980;2024-01-30T23:55:17;0.50;91.00
